Benndale, Mississippi
Current Conditions -  °F | °C
As of 2:53 AM on Monday 24 Nov 2014 (Local Time) from KHBG Reporting Station
Few Clouds Few Clouds  
Wind Chill: 67°   Ceiling: Unl
Heat Index: 67°   Visibility: 10mi
Dew Point: 64°   Wind: 7mph
Humidity: 90%   Direction: 210°SSW
Pressure: 29.73"   Gusts: NA
Location:  31.0532°N, 88.8084°W
Report Text: KHBG 240853Z AUTO 21006KT 10SM FEW018 19/18 A2973 RMK AO2 SLP065 T01940178 51005
Loading
Personal Weather Stations






























Interactive Weather Map New forecast layout! Learn more

10-Day Weather Forecast

Advertisements
Track Severe Weather on mobile